NOAA Web Site Link Tides and Currents Home Page Transparent placeholder image

Parts of the U.S. Government are closed. However, because the information this site provides is necessary to protect life and property, it will be updated and maintained during the Federal Government shutdown. For critical weather information, please visit www.weather.gov. To learn more, see www.commerce.gov.

PORTS® Data Listing: 8555889 Brandywine Shoal Light, DE

CO-OPS RAW PORTS DATA

************************      PRELIMINARY DATA      ************************** 

     THIS RAW DATA HAS NOT BEEN SUBJECT TO THE NATIONAL OCEAN SERVICE'S        
     QUALITY CONTROL OR QUALITY ASSURANCE PROCEDURES AND DOES NOT MEET         
     THE CRITERIA AND STANDARDS OF OFFICIAL NATIONAL OCEAN SERVICE             
     DATA.  IT IS RELEASED FOR LIMITED PUBLIC USE AS PRELIMINARY DATA TO       
     BE USED ONLY WITH APPROPRIATE CAUTION.                                    

************************      PRELIMINARY DATA      ************************** 


       CD   -   Calendar date
       T    -   Time
       TZ   -   Timezone
       PW   -   Predicted water level (feet above MLLW)
       OW   -   Observed water level (feet above MLLW)
       WS   -   Wind speed (knots)
       WD   -   Wind direction (degrees true)
       WG   -   Wind gust (knots)
       AT   -   Air temperature (degrees farenheit)
       WT   -   Water temperature (degrees farenheit)
       AP   -   Air pressure (millibars)
       SA   -   Salinty (PSU - Practical Salinity Units)
       SG   -   Specific gravity
       RH   -   Relative humidity
       AG   -   Air gap (feet)
       VI   -   Visibility (nautical miles)

       ** NOTE **
       A variable that has its data fields filled with "9"s, indicates that
       data was not collected for that sample period.
       **********


STATION NAME: Brandywine Shoal Light (8555889)
****************************************************************************************************
    CD       T    TZ    PW     OW    WS   WD   WG    AT    WT    AP    SA    SG     RH    AG   VI
****************************************************************************************************
2019/01/20 09:24 EST    4.97 -99.99 -999 -999 -999 -99.9 -99.9 -999.9 -9.9 -9.999 -99.9 -99.99 -9.99
2019/01/20 09:30 EST    4.84 -99.99 -999 -999 -999 -99.9 -99.9 -999.9 -9.9 -9.999 -99.9 -99.99 -9.99
2019/01/20 09:36 EST    4.71   6.52 -999 -999 -999 -99.9 -99.9  991.6 -9.9 -9.999 -99.9 -99.99 -9.99
2019/01/20 09:42 EST    4.58 -99.99 -999 -999 -999 -99.9 -99.9 -999.9 -9.9 -9.999 -99.9 -99.99 -9.99
2019/01/20 09:48 EST    4.44 -99.99 -999 -999 -999 -99.9 -99.9 -999.9 -9.9 -9.999 -99.9 -99.99 -9.99
2019/01/20 09:54 EST    4.29   6.09 -999 -999 -999 -99.9 -99.9  991.5 -9.9 -9.999 -99.9 -99.99 -9.99
2019/01/20 10:00 EST    4.15   5.89 -999 -999 -999 -99.9 -99.9  991.8 -9.9 -9.999 -99.9 -99.99 -9.99
2019/01/20 10:06 EST    3.99   5.73 -999 -999 -999 -99.9 -99.9  991.8 -9.9 -9.999 -99.9 -99.99 -9.99
2019/01/20 10:12 EST    3.84   5.54 -999 -999 -999 -99.9 -99.9  991.8 -9.9 -9.999 -99.9 -99.99 -9.99
2019/01/20 10:18 EST    3.68   5.41 -999 -999 -999 -99.9 -99.9  991.9 -9.9 -9.999 -99.9 -99.99 -9.99
2019/01/20 10:24 EST    3.52   5.26 -999 -999 -999 -99.9 -99.9  992.1 -9.9 -9.999 -99.9 -99.99 -9.99
2019/01/20 10:30 EST    3.36   5.08 -999 -999 -999 -99.9 -99.9  992.3 -9.9 -9.999 -99.9 -99.99 -9.99
2019/01/20 10:36 EST    3.19   4.95 -999 -999 -999 -99.9 -99.9  992.7 -9.9 -9.999 -99.9 -99.99 -9.99
2019/01/20 10:42 EST    3.03   4.81 -999 -999 -999 -99.9 -99.9  992.8 -9.9 -9.999 -99.9 -99.99 -9.99
2019/01/20 10:48 EST    2.86   4.58 -999 -999 -999 -99.9 -99.9  993.1 -9.9 -9.999 -99.9 -99.99 -9.99
2019/01/20 10:54 EST    2.69   4.40 -999 -999 -999 -99.9 -99.9  993.3 -9.9 -9.999 -99.9 -99.99 -9.99
2019/01/20 11:00 EST    2.52   4.20 -999 -999 -999 -99.9 -99.9  993.4 -9.9 -9.999 -99.9 -99.99 -9.99
2019/01/20 11:06 EST    2.36   4.01 -999 -999 -999 -99.9 -99.9  993.4 -9.9 -9.999 -99.9 -99.99 -9.99
2019/01/20 11:12 EST    2.19   3.85 -999 -999 -999 -99.9 -99.9  993.3 -9.9 -9.999 -99.9 -99.99 -9.99
2019/01/20 11:18 EST    2.02   3.72 -999 -999 -999 -99.9 -99.9  993.5 -9.9 -9.999 -99.9 -99.99 -9.99
2019/01/20 11:24 EST    1.85   3.55 -999 -999 -999 -99.9 -99.9  993.7 -9.9 -9.999 -99.9 -99.99 -9.99
2019/01/20 11:30 EST    1.69   3.32 -999 -999 -999 -99.9 -99.9  993.7 -9.9 -9.999 -99.9 -99.99 -9.99
2019/01/20 11:36 EST    1.53   3.13 -999 -999 -999 -99.9 -99.9  993.8 -9.9 -9.999 -99.9 -99.99 -9.99
2019/01/20 11:42 EST    1.36   2.99 -999 -999 -999 -99.9 -99.9  994.0 -9.9 -9.999 -99.9 -99.99 -9.99
2019/01/20 11:48 EST    1.21   2.83 -999 -999 -999 -99.9 -99.9  994.1 -9.9 -9.999 -99.9 -99.99 -9.99
2019/01/20 11:54 EST    1.05   2.67 -999 -999 -999 -99.9 -99.9  994.1 -9.9 -9.999 -99.9 -99.99 -9.99
2019/01/20 12:00 EST    0.90   2.48 -999 -999 -999 -99.9 -99.9  994.3 -9.9 -9.999 -99.9 -99.99 -9.99
2019/01/20 12:06 EST    0.75   2.29 -999 -999 -999 -99.9 -99.9  994.4 -9.9 -9.999 -99.9 -99.99 -9.99
2019/01/20 12:12 EST    0.61   2.13 -999 -999 -999 -99.9 -99.9  994.4 -9.9 -9.999 -99.9 -99.99 -9.99
2019/01/20 12:18 EST    0.47   1.96 -999 -999 -999 -99.9 -99.9  994.4 -9.9 -9.999 -99.9 -99.99 -9.99
2019/01/20 12:24 EST    0.34   1.82 -999 -999 -999 -99.9 -99.9  994.5 -9.9 -9.999 -99.9 -99.99 -9.99
2019/01/20 12:30 EST    0.21   1.69 -999 -999 -999 -99.9 -99.9  994.5 -9.9 -9.999 -99.9 -99.99 -9.99
2019/01/20 12:36 EST    0.09   1.56 -999 -999 -999 -99.9 -99.9  994.4 -9.9 -9.999 -99.9 -99.99 -9.99
2019/01/20 12:42 EST   -0.03   1.43 -999 -999 -999 -99.9 -99.9  994.7 -9.9 -9.999 -99.9 -99.99 -9.99
2019/01/20 12:48 EST   -0.14   1.33 -999 -999 -999 -99.9 -99.9  994.7 -9.9 -9.999 -99.9 -99.99 -9.99
2019/01/20 12:54 EST   -0.24   1.18 -999 -999 -999 -99.9 -99.9  994.7 -9.9 -9.999 -99.9 -99.99 -9.99
2019/01/20 13:00 EST   -0.34   1.10 -999 -999 -999 -99.9 -99.9  994.7 -9.9 -9.999 -99.9 -99.99 -9.99
2019/01/20 13:06 EST   -0.42   1.01 -999 -999 -999 -99.9 -99.9  994.9 -9.9 -9.999 -99.9 -99.99 -9.99
2019/01/20 13:12 EST   -0.50   0.95 -999 -999 -999 -99.9 -99.9  995.0 -9.9 -9.999 -99.9 -99.99 -9.99
2019/01/20 13:18 EST   -0.58   0.84 -999 -999 -999 -99.9 -99.9  995.1 -9.9 -9.999 -99.9 -99.99 -9.99
2019/01/20 13:24 EST   -0.64   0.80 -999 -999 -999 -99.9 -99.9  995.3 -9.9 -9.999 -99.9 -99.99 -9.99
2019/01/20 13:30 EST   -0.70   0.72 -999 -999 -999 -99.9 -99.9  995.4 -9.9 -9.999 -99.9 -99.99 -9.99
2019/01/20 13:36 EST   -0.74   0.63 -999 -999 -999 -99.9 -99.9  995.4 -9.9 -9.999 -99.9 -99.99 -9.99
2019/01/20 13:42 EST   -0.79   0.55 -999 -999 -999 -99.9 -99.9  995.4 -9.9 -9.999 -99.9 -99.99 -9.99
2019/01/20 13:48 EST   -0.82   0.46 -999 -999 -999 -99.9 -99.9  995.5 -9.9 -9.999 -99.9 -99.99 -9.99
2019/01/20 13:54 EST   -0.84   0.39 -999 -999 -999 -99.9 -99.9  995.8 -9.9 -9.999 -99.9 -99.99 -9.99
2019/01/20 14:00 EST   -0.86   0.37 -999 -999 -999 -99.9 -99.9  996.1 -9.9 -9.999 -99.9 -99.99 -9.99
2019/01/20 14:06 EST   -0.87   0.38 -999 -999 -999 -99.9 -99.9  996.4 -9.9 -9.999 -99.9 -99.99 -9.99
2019/01/20 14:12 EST   -0.87   0.35 -999 -999 -999 -99.9 -99.9  996.6 -9.9 -9.999 -99.9 -99.99 -9.99
2019/01/20 14:18 EST   -0.86   0.33 -999 -999 -999 -99.9 -99.9  996.8 -9.9 -9.999 -99.9 -99.99 -9.99
2019/01/20 14:24 EST   -0.85   0.32 -999 -999 -999 -99.9 -99.9  997.1 -9.9 -9.999 -99.9 -99.99 -9.99
2019/01/20 14:30 EST   -0.83   0.31 -999 -999 -999 -99.9 -99.9  997.1 -9.9 -9.999 -99.9 -99.99 -9.99
2019/01/20 14:36 EST   -0.80   0.30 -999 -999 -999 -99.9 -99.9  997.3 -9.9 -9.999 -99.9 -99.99 -9.99
2019/01/20 14:42 EST   -0.77   0.27 -999 -999 -999 -99.9 -99.9  997.5 -9.9 -9.999 -99.9 -99.99 -9.99
2019/01/20 14:48 EST   -0.73   0.24 -999 -999 -999 -99.9 -99.9  997.8 -9.9 -9.999 -99.9 -99.99 -9.99
2019/01/20 14:54 EST   -0.68   0.27 -999 -999 -999 -99.9 -99.9  998.0 -9.9 -9.999 -99.9 -99.99 -9.99
2019/01/20 15:00 EST   -0.63   0.23 -999 -999 -999 -99.9 -99.9  998.3 -9.9 -9.999 -99.9 -99.99 -9.99
2019/01/20 15:06 EST   -0.57   0.21 -999 -999 -999 -99.9 -99.9  998.5 -9.9 -9.999 -99.9 -99.99 -9.99
2019/01/20 15:12 EST   -0.50   0.18 -999 -999 -999 -99.9 -99.9  998.5 -9.9 -9.999 -99.9 -99.99 -9.99
2019/01/20 15:18 EST   -0.43   0.20 -999 -999 -999 -99.9 -99.9  998.8 -9.9 -9.999 -99.9 -99.99 -9.99
2019/01/20 15:24 EST   -0.35   0.23 -999 -999 -999 -99.9 -99.9  999.0 -9.9 -9.999 -99.9 -99.99 -9.99
2019/01/20 15:30 EST   -0.27   0.25 -999 -999 -999 -99.9 -99.9  999.2 -9.9 -9.999 -99.9 -99.99 -9.99
2019/01/20 15:36 EST   -0.18   0.32 -999 -999 -999 -99.9 -99.9  999.3 -9.9 -9.999 -99.9 -99.99 -9.99
2019/01/20 15:42 EST   -0.09   0.39 -999 -999 -999 -99.9 -99.9  999.5 -9.9 -9.999 -99.9 -99.99 -9.99
2019/01/20 15:48 EST    0.01   0.46 -999 -999 -999 -99.9 -99.9  999.6 -9.9 -9.999 -99.9 -99.99 -9.99
2019/01/20 15:54 EST    0.11   0.59 -999 -999 -999 -99.9 -99.9  999.7 -9.9 -9.999 -99.9 -99.99 -9.99
2019/01/20 16:00 EST    0.21   0.67 -999 -999 -999 -99.9 -99.9 1000.0 -9.9 -9.999 -99.9 -99.99 -9.99
2019/01/20 16:06 EST    0.32   0.76 -999 -999 -999 -99.9 -99.9 1000.3 -9.9 -9.999 -99.9 -99.99 -9.99
2019/01/20 16:12 EST    0.44   0.86 -999 -999 -999 -99.9 -99.9 1000.5 -9.9 -9.999 -99.9 -99.99 -9.99
2019/01/20 16:18 EST    0.56   1.02 -999 -999 -999 -99.9 -99.9 1000.7 -9.9 -9.999 -99.9 -99.99 -9.99
2019/01/20 16:24 EST    0.68   1.11 -999 -999 -999 -99.9 -99.9 1000.9 -9.9 -9.999 -99.9 -99.99 -9.99
2019/01/20 16:30 EST    0.80   1.19 -999 -999 -999 -99.9 -99.9 1001.0 -9.9 -9.999 -99.9 -99.99 -9.99
2019/01/20 16:36 EST    0.93   1.36 -999 -999 -999 -99.9 -99.9 1001.2 -9.9 -9.999 -99.9 -99.99 -9.99
2019/01/20 16:42 EST    1.06   1.48 -999 -999 -999 -99.9 -99.9 1001.3 -9.9 -9.999 -99.9 -99.99 -9.99
2019/01/20 16:48 EST    1.19   1.67 -999 -999 -999 -99.9 -99.9 1001.3 -9.9 -9.999 -99.9 -99.99 -9.99
2019/01/20 16:54 EST    1.33   1.78 -999 -999 -999 -99.9 -99.9 1001.5 -9.9 -9.999 -99.9 -99.99 -9.99
2019/01/20 17:00 EST    1.47   1.90 -999 -999 -999 -99.9 -99.9 1001.8 -9.9 -9.999 -99.9 -99.99 -9.99
2019/01/20 17:06 EST    1.60   2.06 -999 -999 -999 -99.9 -99.9 1002.0 -9.9 -9.999 -99.9 -99.99 -9.99
2019/01/20 17:12 EST    1.74   2.16 -999 -999 -999 -99.9 -99.9 1002.1 -9.9 -9.999 -99.9 -99.99 -9.99
2019/01/20 17:18 EST    1.88   2.30 -999 -999 -999 -99.9 -99.9 1002.4 -9.9 -9.999 -99.9 -99.99 -9.99
2019/01/20 17:24 EST    2.02   2.37 -999 -999 -999 -99.9 -99.9 1002.7 -9.9 -9.999 -99.9 -99.99 -9.99
2019/01/20 17:30 EST    2.16   2.49 -999 -999 -999 -99.9 -99.9 1002.8 -9.9 -9.999 -99.9 -99.99 -9.99
2019/01/20 17:36 EST    2.30   2.62 -999 -999 -999 -99.9 -99.9 1003.1 -9.9 -9.999 -99.9 -99.99 -9.99
2019/01/20 17:42 EST    2.44   2.73 -999 -999 -999 -99.9 -99.9 1003.2 -9.9 -9.999 -99.9 -99.99 -9.99
2019/01/20 17:48 EST    2.57   2.89 -999 -999 -999 -99.9 -99.9 1003.4 -9.9 -9.999 -99.9 -99.99 -9.99
2019/01/20 17:54 EST    2.71   3.01 -999 -999 -999 -99.9 -99.9 1003.4 -9.9 -9.999 -99.9 -99.99 -9.99
2019/01/20 18:00 EST    2.84   3.12 -999 -999 -999 -99.9 -99.9 1003.4 -9.9 -9.999 -99.9 -99.99 -9.99
2019/01/20 18:06 EST    2.97   3.20 -999 -999 -999 -99.9 -99.9 1003.8 -9.9 -9.999 -99.9 -99.99 -9.99
2019/01/20 18:12 EST    3.10   3.32 -999 -999 -999 -99.9 -99.9 1004.2 -9.9 -9.999 -99.9 -99.99 -9.99
2019/01/20 18:18 EST    3.22   3.45 -999 -999 -999 -99.9 -99.9 1004.2 -9.9 -9.999 -99.9 -99.99 -9.99
2019/01/20 18:24 EST    3.34   3.56 -999 -999 -999 -99.9 -99.9 1004.4 -9.9 -9.999 -99.9 -99.99 -9.99
2019/01/20 18:30 EST    3.46   3.66 -999 -999 -999 -99.9 -99.9 1004.5 -9.9 -9.999 -99.9 -99.99 -9.99
2019/01/20 18:36 EST    3.57   3.78 -999 -999 -999 -99.9 -99.9 1004.7 -9.9 -9.999 -99.9 -99.99 -9.99
2019/01/20 18:42 EST    3.68   3.86 -999 -999 -999 -99.9 -99.9 1004.8 -9.9 -9.999 -99.9 -99.99 -9.99
2019/01/20 18:48 EST    3.78   3.95 -999 -999 -999 -99.9 -99.9 1005.0 -9.9 -9.999 -99.9 -99.99 -9.99
2019/01/20 18:54 EST    3.88   4.04 -999 -999 -999 -99.9 -99.9 1005.0 -9.9 -9.999 -99.9 -99.99 -9.99
2019/01/20 19:00 EST    3.98   4.18 -999 -999 -999 -99.9 -99.9 1005.0 -9.9 -9.999 -99.9 -99.99 -9.99
2019/01/20 19:06 EST    4.07 -99.99 -999 -999 -999 -99.9 -99.9 -999.9 -9.9 -9.999 -99.9 -99.99 -9.99
2019/01/20 19:12 EST    4.15 -99.99 -999 -999 -999 -99.9 -99.9 -999.9 -9.9 -9.999 -99.9 -99.99 -9.99
2019/01/20 19:18 EST    4.23   4.39 -999 -999 -999 -99.9 -99.9 1005.5 -9.9 -9.999 -99.9 -99.99 -9.99
2019/01/20 19:24 EST    4.30   4.50 -999 -999 -999 -99.9 -99.9 1005.6 -9.9 -9.999 -99.9 -99.99 -9.99
2019/01/20 19:30 EST    4.36   4.52 -999 -999 -999 -99.9 -99.9 1005.9 -9.9 -9.999 -99.9 -99.99 -9.99
2019/01/20 19:36 EST    4.42   4.55 -999 -999 -999 -99.9 -99.9 1006.1 -9.9 -9.999 -99.9 -99.99 -9.99
2019/01/20 19:42 EST    4.47   4.56 -999 -999 -999 -99.9 -99.9 1006.3 -9.9 -9.999 -99.9 -99.99 -9.99
2019/01/20 19:48 EST    4.51   4.55 -999 -999 -999 -99.9 -99.9 1006.3 -9.9 -9.999 -99.9 -99.99 -9.99
2019/01/20 19:54 EST    4.55   4.61 -999 -999 -999 -99.9 -99.9 1006.3 -9.9 -9.999 -99.9 -99.99 -9.99
2019/01/20 20:00 EST    4.58   4.58 -999 -999 -999 -99.9 -99.9 1006.6 -9.9 -9.999 -99.9 -99.99 -9.99
2019/01/20 20:06 EST    4.60   4.52 -999 -999 -999 -99.9 -99.9 1006.6 -9.9 -9.999 -99.9 -99.99 -9.99
2019/01/20 20:12 EST    4.62   4.51 -999 -999 -999 -99.9 -99.9 1006.7 -9.9 -9.999 -99.9 -99.99 -9.99
2019/01/20 20:18 EST    4.62   4.45 -999 -999 -999 -99.9 -99.9 1007.0 -9.9 -9.999 -99.9 -99.99 -9.99
2019/01/20 20:24 EST    4.62   4.45 -999 -999 -999 -99.9 -99.9 1007.3 -9.9 -9.999 -99.9 -99.99 -9.99
2019/01/20 20:30 EST    4.61   4.42 -999 -999 -999 -99.9 -99.9 1007.5 -9.9 -9.999 -99.9 -99.99 -9.99
2019/01/20 20:36 EST    4.59   4.42 -999 -999 -999 -99.9 -99.9 1007.6 -9.9 -9.999 -99.9 -99.99 -9.99
2019/01/20 20:42 EST    4.57   4.38 -999 -999 -999 -99.9 -99.9 1007.8 -9.9 -9.999 -99.9 -99.99 -9.99
2019/01/20 20:48 EST    4.54   4.39 -999 -999 -999 -99.9 -99.9 1007.8 -9.9 -9.999 -99.9 -99.99 -9.99
2019/01/20 20:54 EST    4.49   4.36 -999 -999 -999 -99.9 -99.9 1008.0 -9.9 -9.999 -99.9 -99.99 -9.99
2019/01/20 21:00 EST    4.44   4.28 -999 -999 -999 -99.9 -99.9 1008.2 -9.9 -9.999 -99.9 -99.99 -9.99
2019/01/20 21:06 EST    4.39   4.24 -999 -999 -999 -99.9 -99.9 1008.3 -9.9 -9.999 -99.9 -99.99 -9.99
2019/01/20 21:12 EST    4.32   4.24 -999 -999 -999 -99.9 -99.9 1008.4 -9.9 -9.999 -99.9 -99.99 -9.99
2019/01/20 21:18 EST    4.25   4.19 -999 -999 -999 -99.9 -99.9 1008.4 -9.9 -9.999 -99.9 -99.99 -9.99
2019/01/20 21:24 EST    4.17   4.14 -999 -999 -999 -99.9 -99.9 1008.5 -9.9 -9.999 -99.9 -99.99 -9.99
2019/01/20 21:30 EST    4.08   4.07 -999 -999 -999 -99.9 -99.9 1008.7 -9.9 -9.999 -99.9 -99.99 -9.99
2019/01/20 21:36 EST    3.99   4.03 -999 -999 -999 -99.9 -99.9 1008.9 -9.9 -9.999 -99.9 -99.99 -9.99
2019/01/20 21:42 EST    3.89   3.96 -999 -999 -999 -99.9 -99.9 1009.0 -9.9 -9.999 -99.9 -99.99 -9.99
2019/01/20 21:48 EST    3.79   3.87 -999 -999 -999 -99.9 -99.9 1009.3 -9.9 -9.999 -99.9 -99.99 -9.99
2019/01/20 21:54 EST    3.67   3.83 -999 -999 -999 -99.9 -99.9 1009.5 -9.9 -9.999 -99.9 -99.99 -9.99
2019/01/20 22:00 EST    3.56   3.74 -999 -999 -999 -99.9 -99.9 1009.8 -9.9 -9.999 -99.9 -99.99 -9.99
2019/01/20 22:06 EST    3.44   3.65 -999 -999 -999 -99.9 -99.9 1009.8 -9.9 -9.999 -99.9 -99.99 -9.99
2019/01/20 22:12 EST    3.31   3.50 -999 -999 -999 -99.9 -99.9 1010.0 -9.9 -9.999 -99.9 -99.99 -9.99
2019/01/20 22:18 EST    3.18   3.45 -999 -999 -999 -99.9 -99.9 1010.2 -9.9 -9.999 -99.9 -99.99 -9.99
2019/01/20 22:24 EST    3.04   3.36 -999 -999 -999 -99.9 -99.9 1010.2 -9.9 -9.999 -99.9 -99.99 -9.99
2019/01/20 22:30 EST    2.91   3.18 -999 -999 -999 -99.9 -99.9 1010.4 -9.9 -9.999 -99.9 -99.99 -9.99
2019/01/20 22:36 EST    2.76   3.03 -999 -999 -999 -99.9 -99.9 1010.7 -9.9 -9.999 -99.9 -99.99 -9.99
2019/01/20 22:42 EST    2.62   2.93 -999 -999 -999 -99.9 -99.9 1010.8 -9.9 -9.999 -99.9 -99.99 -9.99
2019/01/20 22:48 EST    2.47   2.79 -999 -999 -999 -99.9 -99.9 1010.8 -9.9 -9.999 -99.9 -99.99 -9.99
2019/01/20 22:54 EST    2.33   2.62 -999 -999 -999 -99.9 -99.9 1010.9 -9.9 -9.999 -99.9 -99.99 -9.99
2019/01/20 23:00 EST    2.18   2.53 -999 -999 -999 -99.9 -99.9 1011.2 -9.9 -9.999 -99.9 -99.99 -9.99
2019/01/20 23:06 EST    2.02   2.41 -999 -999 -999 -99.9 -99.9 1011.2 -9.9 -9.999 -99.9 -99.99 -9.99
2019/01/20 23:12 EST    1.87   2.21 -999 -999 -999 -99.9 -99.9 1011.5 -9.9 -9.999 -99.9 -99.99 -9.99
2019/01/20 23:18 EST    1.72   2.04 -999 -999 -999 -99.9 -99.9 1011.5 -9.9 -9.999 -99.9 -99.99 -9.99
2019/01/20 23:24 EST    1.57   1.87 -999 -999 -999 -99.9 -99.9 1011.5 -9.9 -9.999 -99.9 -99.99 -9.99
2019/01/20 23:30 EST    1.42   1.71 -999 -999 -999 -99.9 -99.9 1011.5 -9.9 -9.999 -99.9 -99.99 -9.99
2019/01/20 23:36 EST    1.26   1.55 -999 -999 -999 -99.9 -99.9 1011.6 -9.9 -9.999 -99.9 -99.99 -9.99
2019/01/20 23:42 EST    1.11   1.39 -999 -999 -999 -99.9 -99.9 1011.6 -9.9 -9.999 -99.9 -99.99 -9.99
2019/01/20 23:48 EST    0.97   1.20 -999 -999 -999 -99.9 -99.9 1011.8 -9.9 -9.999 -99.9 -99.99 -9.99
2019/01/20 23:54 EST    0.82   1.06 -999 -999 -999 -99.9 -99.9 1011.7 -9.9 -9.999 -99.9 -99.99 -9.99
2019/01/21 00:00 EST    0.68   0.91 -999 -999 -999 -99.9 -99.9 1011.9 -9.9 -9.999 -99.9 -99.99 -9.99
2019/01/21 00:06 EST    0.53   0.77 -999 -999 -999 -99.9 -99.9 1011.9 -9.9 -9.999 -99.9 -99.99 -9.99
2019/01/21 00:12 EST    0.40   0.61 -999 -999 -999 -99.9 -99.9 1012.2 -9.9 -9.999 -99.9 -99.99 -9.99
2019/01/21 00:18 EST    0.26   0.45 -999 -999 -999 -99.9 -99.9 1012.5 -9.9 -9.999 -99.9 -99.99 -9.99
2019/01/21 00:24 EST    0.13 -99.99 -999 -999 -999 -99.9 -99.9 -999.9 -9.9 -9.999 -99.9 -99.99 -9.99
2019/01/21 00:30 EST    0.01   0.20 -999 -999 -999 -99.9 -99.9 1012.9 -9.9 -9.999 -99.9 -99.99 -9.99
2019/01/21 00:36 EST   -0.12   0.10 -999 -999 -999 -99.9 -99.9 1013.0 -9.9 -9.999 -99.9 -99.99 -9.99
2019/01/21 00:42 EST   -0.23  -0.03 -999 -999 -999 -99.9 -99.9 1012.9 -9.9 -9.999 -99.9 -99.99 -9.99
2019/01/21 00:48 EST   -0.34  -0.11 -999 -999 -999 -99.9 -99.9 1013.1 -9.9 -9.999 -99.9 -99.99 -9.99
2019/01/21 00:54 EST   -0.44  -0.24 -999 -999 -999 -99.9 -99.9 1013.1 -9.9 -9.999 -99.9 -99.99 -9.99
2019/01/21 01:00 EST   -0.54  -0.36 -999 -999 -999 -99.9 -99.9 1013.4 -9.9 -9.999 -99.9 -99.99 -9.99
2019/01/21 01:06 EST   -0.63  -0.46 -999 -999 -999 -99.9 -99.9 1013.6 -9.9 -9.999 -99.9 -99.99 -9.99
2019/01/21 01:12 EST   -0.71  -0.52 -999 -999 -999 -99.9 -99.9 1013.7 -9.9 -9.999 -99.9 -99.99 -9.99
2019/01/21 01:18 EST   -0.78  -0.57 -999 -999 -999 -99.9 -99.9 1013.7 -9.9 -9.999 -99.9 -99.99 -9.99
2019/01/21 01:24 EST   -0.85  -0.65 -999 -999 -999 -99.9 -99.9 1013.8 -9.9 -9.999 -99.9 -99.99 -9.99
2019/01/21 01:30 EST   -0.91  -0.76 -999 -999 -999 -99.9 -99.9 1014.0 -9.9 -9.999 -99.9 -99.99 -9.99
2019/01/21 01:36 EST   -0.96  -0.81 -999 -999 -999 -99.9 -99.9 1014.1 -9.9 -9.999 -99.9 -99.99 -9.99
2019/01/21 01:42 EST   -1.00  -0.88 -999 -999 -999 -99.9 -99.9 1014.1 -9.9 -9.999 -99.9 -99.99 -9.99
2019/01/21 01:48 EST   -1.03  -0.94 -999 -999 -999 -99.9 -99.9 1014.4 -9.9 -9.999 -99.9 -99.99 -9.99
2019/01/21 01:54 EST   -1.06  -0.94 -999 -999 -999 -99.9 -99.9 1014.5 -9.9 -9.999 -99.9 -99.99 -9.99
2019/01/21 02:00 EST   -1.07 -99.99 -999 -999 -999 -99.9 -99.9 -999.9 -9.9 -9.999 -99.9 -99.99 -9.99
2019/01/21 02:06 EST   -1.08 -99.99 -999 -999 -999 -99.9 -99.9 -999.9 -9.9 -9.999 -99.9 -99.99 -9.99
2019/01/21 02:12 EST   -1.07 -99.99 -999 -999 -999 -99.9 -99.9 -999.9 -9.9 -9.999 -99.9 -99.99 -9.99
2019/01/21 02:18 EST   -1.06  -1.06 -999 -999 -999 -99.9 -99.9 1015.0 -9.9 -9.999 -99.9 -99.99 -9.99
2019/01/21 02:24 EST   -1.04  -1.02 -999 -999 -999 -99.9 -99.9 1015.2 -9.9 -9.999 -99.9 -99.99 -9.99
2019/01/21 02:30 EST   -1.01  -1.00 -999 -999 -999 -99.9 -99.9 1015.2 -9.9 -9.999 -99.9 -99.99 -9.99
2019/01/21 02:36 EST   -0.98  -0.95 -999 -999 -999 -99.9 -99.9 1015.2 -9.9 -9.999 -99.9 -99.99 -9.99
2019/01/21 02:42 EST   -0.93  -0.93 -999 -999 -999 -99.9 -99.9 1015.4 -9.9 -9.999 -99.9 -99.99 -9.99
2019/01/21 02:48 EST   -0.88  -0.89 -999 -999 -999 -99.9 -99.9 1015.4 -9.9 -9.999 -99.9 -99.99 -9.99
2019/01/21 02:54 EST   -0.82  -0.83 -999 -999 -999 -99.9 -99.9 1015.5 -9.9 -9.999 -99.9 -99.99 -9.99
2019/01/21 03:00 EST   -0.75  -0.72 -999 -999 -999 -99.9 -99.9 1015.4 -9.9 -9.999 -99.9 -99.99 -9.99
2019/01/21 03:06 EST   -0.67  -0.66 -999 -999 -999 -99.9 -99.9 1015.5 -9.9 -9.999 -99.9 -99.99 -9.99
2019/01/21 03:12 EST   -0.59  -0.56 -999 -999 -999 -99.9 -99.9 1015.6 -9.9 -9.999 -99.9 -99.99 -9.99
2019/01/21 03:18 EST   -0.50 -99.99 -999 -999 -999 -99.9 -99.9 -999.9 -9.9 -9.999 -99.9 -99.99 -9.99
2019/01/21 03:24 EST   -0.40 -99.99 -999 -999 -999 -99.9 -99.9 -999.9 -9.9 -9.999 -99.9 -99.99 -9.99
2019/01/21 03:30 EST   -0.30 -99.99 -999 -999 -999 -99.9 -99.9 -999.9 -9.9 -9.999 -99.9 -99.99 -9.99
2019/01/21 03:36 EST   -0.19 -99.99 -999 -999 -999 -99.9 -99.9 -999.9 -9.9 -9.999 -99.9 -99.99 -9.99
2019/01/21 03:42 EST   -0.08 -99.99 -999 -999 -999 -99.9 -99.9 -999.9 -9.9 -9.999 -99.9 -99.99 -9.99
2019/01/21 03:48 EST    0.04 -99.99 -999 -999 -999 -99.9 -99.9 -999.9 -9.9 -9.999 -99.9 -99.99 -9.99
2019/01/21 03:54 EST    0.17 -99.99 -999 -999 -999 -99.9 -99.9 -999.9 -9.9 -9.999 -99.9 -99.99 -9.99
2019/01/21 04:00 EST    0.30 -99.99 -999 -999 -999 -99.9 -99.9 -999.9 -9.9 -9.999 -99.9 -99.99 -9.99
2019/01/21 04:06 EST    0.44 -99.99 -999 -999 -999 -99.9 -99.9 -999.9 -9.9 -9.999 -99.9 -99.99 -9.99
2019/01/21 04:12 EST    0.58 -99.99 -999 -999 -999 -99.9 -99.9 -999.9 -9.9 -9.999 -99.9 -99.99 -9.99
2019/01/21 04:18 EST    0.72 -99.99 -999 -999 -999 -99.9 -99.9 -999.9 -9.9 -9.999 -99.9 -99.99 -9.99
2019/01/21 04:24 EST    0.87 -99.99 -999 -999 -999 -99.9 -99.9 -999.9 -9.9 -9.999 -99.9 -99.99 -9.99
2019/01/21 04:30 EST    1.02 -99.99 -999 -999 -999 -99.9 -99.9 -999.9 -9.9 -9.999 -99.9 -99.99 -9.99
2019/01/21 04:36 EST    1.18 -99.99 -999 -999 -999 -99.9 -99.9 -999.9 -9.9 -9.999 -99.9 -99.99 -9.99
2019/01/21 04:42 EST    1.33 -99.99 -999 -999 -999 -99.9 -99.9 -999.9 -9.9 -9.999 -99.9 -99.99 -9.99
2019/01/21 04:48 EST    1.50 -99.99 -999 -999 -999 -99.9 -99.9 -999.9 -9.9 -9.999 -99.9 -99.99 -9.99
2019/01/21 04:54 EST    1.66 -99.99 -999 -999 -999 -99.9 -99.9 -999.9 -9.9 -9.999 -99.9 -99.99 -9.99
2019/01/21 05:00 EST    1.83 -99.99 -999 -999 -999 -99.9 -99.9 -999.9 -9.9 -9.999 -99.9 -99.99 -9.99
2019/01/21 05:06 EST    1.99 -99.99 -999 -999 -999 -99.9 -99.9 -999.9 -9.9 -9.999 -99.9 -99.99 -9.99
2019/01/21 05:12 EST    2.16 -99.99 -999 -999 -999 -99.9 -99.9 -999.9 -9.9 -9.999 -99.9 -99.99 -9.99
2019/01/21 05:18 EST    2.33 -99.99 -999 -999 -999 -99.9 -99.9 -999.9 -9.9 -9.999 -99.9 -99.99 -9.99
2019/01/21 05:24 EST    2.50 -99.99 -999 -999 -999 -99.9 -99.9 -999.9 -9.9 -9.999 -99.9 -99.99 -9.99
2019/01/21 05:30 EST    2.68 -99.99 -999 -999 -999 -99.9 -99.9 -999.9 -9.9 -9.999 -99.9 -99.99 -9.99
2019/01/21 05:36 EST    2.85 -99.99 -999 -999 -999 -99.9 -99.9 -999.9 -9.9 -9.999 -99.9 -99.99 -9.99
2019/01/21 05:42 EST    3.02 -99.99 -999 -999 -999 -99.9 -99.9 -999.9 -9.9 -9.999 -99.9 -99.99 -9.99
2019/01/21 05:48 EST    3.19 -99.99 -999 -999 -999 -99.9 -99.9 -999.9 -9.9 -9.999 -99.9 -99.99 -9.99
2019/01/21 05:54 EST    3.36 -99.99 -999 -999 -999 -99.9 -99.9 -999.9 -9.9 -9.999 -99.9 -99.99 -9.99
2019/01/21 06:00 EST    3.52 -99.99 -999 -999 -999 -99.9 -99.9 -999.9 -9.9 -9.999 -99.9 -99.99 -9.99
2019/01/21 06:06 EST    3.69 -99.99 -999 -999 -999 -99.9 -99.9 -999.9 -9.9 -9.999 -99.9 -99.99 -9.99
2019/01/21 06:12 EST    3.85 -99.99 -999 -999 -999 -99.9 -99.9 -999.9 -9.9 -9.999 -99.9 -99.99 -9.99
2019/01/21 06:18 EST    4.01 -99.99 -999 -999 -999 -99.9 -99.9 -999.9 -9.9 -9.999 -99.9 -99.99 -9.99
2019/01/21 06:24 EST    4.17 -99.99 -999 -999 -999 -99.9 -99.9 -999.9 -9.9 -9.999 -99.9 -99.99 -9.99
2019/01/21 06:30 EST    4.32 -99.99 -999 -999 -999 -99.9 -99.9 -999.9 -9.9 -9.999 -99.9 -99.99 -9.99
2019/01/21 06:36 EST    4.47 -99.99 -999 -999 -999 -99.9 -99.9 -999.9 -9.9 -9.999 -99.9 -99.99 -9.99
2019/01/21 06:42 EST    4.61 -99.99 -999 -999 -999 -99.9 -99.9 -999.9 -9.9 -9.999 -99.9 -99.99 -9.99
2019/01/21 06:48 EST    4.75 -99.99 -999 -999 -999 -99.9 -99.9 -999.9 -9.9 -9.999 -99.9 -99.99 -9.99
2019/01/21 06:54 EST    4.89 -99.99 -999 -999 -999 -99.9 -99.9 -999.9 -9.9 -9.999 -99.9 -99.99 -9.99
2019/01/21 07:00 EST    5.01 -99.99 -999 -999 -999 -99.9 -99.9 -999.9 -9.9 -9.999 -99.9 -99.99 -9.99
2019/01/21 07:06 EST    5.14 -99.99 -999 -999 -999 -99.9 -99.9 -999.9 -9.9 -9.999 -99.9 -99.99 -9.99
2019/01/21 07:12 EST    5.26 -99.99 -999 -999 -999 -99.9 -99.9 -999.9 -9.9 -9.999 -99.9 -99.99 -9.99
2019/01/21 07:18 EST    5.37 -99.99 -999 -999 -999 -99.9 -99.9 -999.9 -9.9 -9.999 -99.9 -99.99 -9.99
2019/01/21 07:24 EST    5.47 -99.99 -999 -999 -999 -99.9 -99.9 -999.9 -9.9 -9.999 -99.9 -99.99 -9.99
2019/01/21 07:30 EST    5.57 -99.99 -999 -999 -999 -99.9 -99.9 -999.9 -9.9 -9.999 -99.9 -99.99 -9.99
2019/01/21 07:36 EST    5.66 -99.99 -999 -999 -999 -99.9 -99.9 -999.9 -9.9 -9.999 -99.9 -99.99 -9.99
2019/01/21 07:42 EST    5.75 -99.99 -999 -999 -999 -99.9 -99.9 -999.9 -9.9 -9.999 -99.9 -99.99 -9.99
2019/01/21 07:48 EST    5.83 -99.99 -999 -999 -999 -99.9 -99.9 -999.9 -9.9 -9.999 -99.9 -99.99 -9.99
2019/01/21 07:54 EST    5.90 -99.99 -999 -999 -999 -99.9 -99.9 -999.9 -9.9 -9.999 -99.9 -99.99 -9.99
2019/01/21 08:00 EST    5.96 -99.99 -999 -999 -999 -99.9 -99.9 -999.9 -9.9 -9.999 -99.9 -99.99 -9.99
2019/01/21 08:06 EST    6.01 -99.99 -999 -999 -999 -99.9 -99.9 -999.9 -9.9 -9.999 -99.9 -99.99 -9.99
2019/01/21 08:12 EST    6.06 -99.99 -999 -999 -999 -99.9 -99.9 -999.9 -9.9 -9.999 -99.9 -99.99 -9.99
2019/01/21 08:18 EST    6.10 -99.99 -999 -999 -999 -99.9 -99.9 -999.9 -9.9 -9.999 -99.9 -99.99 -9.99
2019/01/21 08:24 EST    6.13 -99.99 -999 -999 -999 -99.9 -99.9 -999.9 -9.9 -9.999 -99.9 -99.99 -9.99
2019/01/21 08:30 EST    6.15 -99.99 -999 -999 -999 -99.9 -99.9 -999.9 -9.9 -9.999 -99.9 -99.99 -9.99
2019/01/21 08:36 EST    6.16 -99.99 -999 -999 -999 -99.9 -99.9 -999.9 -9.9 -9.999 -99.9 -99.99 -9.99
2019/01/21 08:42 EST    6.16 -99.99 -999 -999 -999 -99.9 -99.9 -999.9 -9.9 -9.999 -99.9 -99.99 -9.99
2019/01/21 08:48 EST    6.16 -99.99 -999 -999 -999 -99.9 -99.9 -999.9 -9.9 -9.999 -99.9 -99.99 -9.99
2019/01/21 08:54 EST    6.14 -99.99 -999 -999 -999 -99.9 -99.9 -999.9 -9.9 -9.999 -99.9 -99.99 -9.99
2019/01/21 09:00 EST    6.12 -99.99 -999 -999 -999 -99.9 -99.9 -999.9 -9.9 -9.999 -99.9 -99.99 -9.99
2019/01/21 09:06 EST    6.08 -99.99 -999 -999 -999 -99.9 -99.9 -999.9 -9.9 -9.999 -99.9 -99.99 -9.99
2019/01/21 09:12 EST    6.04 -99.99 -999 -999 -999 -99.9 -99.9 -999.9 -9.9 -9.999 -99.9 -99.99 -9.99
2019/01/21 09:18 EST    5.99 -99.99 -999 -999 -999 -99.9 -99.9 -999.9 -9.9 -9.999 -99.9 -99.99 -9.99
2019/01/21 09:24 EST    5.93 -99.99 -999 -999 -999 -99.9 -99.9 -999.9 -9.9 -9.999 -99.9 -99.99 -9.99

Revised: 08/08/2018
NOAA / National Ocean Service
Web site owner: Center for Operational Oceanographic Products and Services